Time;durP1;ratioP1;P1;durP2;ratioP2;P2;SDS_P1;SDS_P2;PMS_P1;PMS_P2;Temp;Humidity;BMP_temperature;BMP_pressure;BME280_temperature;BME280_humidity;BME280_pressure;Samples;Min_cycle;Max_cycle;Signal;HPM_P1;HPM_P2
2021/05/19 00:01:26;;;;;;;;;;;8.60;99.90;;;;;;5052998;28;20384;-70
2021/05/19 00:03:54;;;;;;;;;;;8.60;99.90;;;;;;5053807;28;19929;-71
2021/05/19 00:06:22;;;;;;;;;;;8.60;99.90;;;;;;5053922;28;19931;-69
2021/05/19 00:08:50;;;;;;;;;;;8.60;99.90;;;;;;5054197;28;19970;-71
2021/05/19 00:11:45;;;;;;;;;;;8.70;99.90;;;;;;5055266;28;20346;-69
2021/05/19 00:14:38;;;;;;;;;;;8.70;99.90;;;;;;5055178;28;19964;-71
2021/05/19 00:17:07;;;;;;;;;;;8.50;99.90;;;;;;5054683;28;19924;-70
2021/05/19 00:19:34;;;;;;;;;;;8.30;99.90;;;;;;5058984;28;19925;-69
2021/05/19 00:22:03;;;;;;;;;;;8.20;99.90;;;;;;5065627;28;20024;-72
2021/05/19 00:24:31;;;;;;;;;;;8.00;99.90;;;;;;5070824;28;19925;-70
2021/05/19 00:26:59;;;;;;;;;;;8.00;99.90;;;;;;5070833;28;19932;-70
2021/05/19 00:29:26;;;;;;;;;;;8.00;99.90;;;;;;5071525;28;20388;-69
2021/05/19 00:31:55;;;;;;;;;;;7.90;99.90;;;;;;5069704;28;19986;-69
2021/05/19 00:34:24;;;;;;;;;;;8.00;99.90;;;;;;5070340;28;19924;-70
2021/05/19 00:36:51;;;;;;;;;;;8.10;99.90;;;;;;5069681;28;19995;-70
2021/05/19 00:39:19;;;;;;;;;;;8.20;99.90;;;;;;5070911;28;19932;-70
2021/05/19 00:41:47;;;;;;;;;;;8.40;99.90;;;;;;5071363;28;19960;-69
2021/05/19 00:44:40;;;;;;;;;;;8.40;99.90;;;;;;5070680;28;19967;-72
2021/05/19 00:47:08;;;;;;;;;;;8.50;99.90;;;;;;5069329;28;19932;-71
2021/05/19 00:49:37;;;;;;;;;;;8.50;99.90;;;;;;5070040;28;19960;-70
2021/05/19 00:52:06;;;;;;;;;;;8.60;99.90;;;;;;5071238;28;19925;-73
2021/05/19 00:54:34;;;;;;;;;;;8.50;99.90;;;;;;5072411;28;19925;-71
2021/05/19 00:57:01;;;;;;;;;;;8.50;99.90;;;;;;5073251;28;19992;-71
2021/05/19 00:59:29;;;;;;;;;;;8.50;99.90;;;;;;5072014;28;19929;-70
2021/05/19 01:02:03;;;;;;;;;;;8.40;99.90;;;;;;5069933;28;19932;-70
2021/05/19 01:04:30;;;;;;;;;;;8.30;99.90;;;;;;5071435;28;19925;-70
2021/05/19 01:07:33;;;;;;;;;;;8.30;99.90;;;;;;5057437;28;20296;-70
2021/05/19 01:10:01;;;;;;;;;;;8.30;99.90;;;;;;5068179;28;19925;-69
2021/05/19 01:12:29;;;;;;;;;;;8.30;99.90;;;;;;5066917;28;19928;-69
2021/05/19 01:14:59;;;;;;;;;;;8.20;99.90;;;;;;5059964;28;19928;-69
2021/05/19 01:17:27;;;;;;;;;;;8.10;99.90;;;;;;5058925;28;19933;-69
2021/05/19 01:19:54;;;;;;;;;;;8.00;99.90;;;;;;5059495;28;19933;-71
2021/05/19 01:22:25;;;;;;;;;;;8.00;99.90;;;;;;5057194;28;19925;-70
2021/05/19 01:24:59;;;;;;;;;;;8.00;99.90;;;;;;5055000;28;19970;-69
2021/05/19 01:27:28;;;;;;;;;;;7.90;99.90;;;;;;5055733;28;20066;-70
2021/05/19 01:29:57;;;;;;;;;;;8.10;99.90;;;;;;5042750;28;19924;-69
2021/05/19 01:32:25;;;;;;;;;;;8.30;99.90;;;;;;5059947;28;19931;-69
2021/05/19 01:34:53;;;;;;;;;;;8.40;99.90;;;;;;5068490;28;19988;-69
2021/05/19 01:37:27;;;;;;;;;;;8.40;99.90;;;;;;5062328;28;19924;-69
2021/05/19 01:39:58;;;;;;;;;;;8.50;99.90;;;;;;5055324;28;20315;-69
2021/05/19 01:42:26;;;;;;;;;;;8.50;99.90;;;;;;5054713;28;20290;-69
2021/05/19 01:45:06;;;;;;;;;;;8.50;99.90;;;;;;5054226;28;19924;-69
2021/05/19 01:47:40;;;;;;;;;;;8.50;99.90;;;;;;5055230;28;19959;-70
2021/05/19 01:50:11;;;;;;;;;;;8.40;99.90;;;;;;5056587;28;19929;-69
2021/05/19 01:52:41;;;;;;;;;;;8.30;99.90;;;;;;5061921;28;19928;-69
2021/05/19 01:55:09;;;;;;;;;;;8.20;99.90;;;;;;5059969;28;19929;-70
2021/05/19 01:57:39;;;;;;;;;;;8.20;99.90;;;;;;5054525;28;19928;-69
2021/05/19 02:00:08;;;;;;;;;;;8.20;99.90;;;;;;5055639;28;19925;-69
2021/05/19 02:02:41;;;;;;;;;;;8.20;99.90;;;;;;5055627;28;19929;-71
2021/05/19 02:05:15;;;;;;;;;;;8.20;99.90;;;;;;5054323;28;19925;-72
2021/05/19 02:07:45;;;;;;;;;;;8.30;99.90;;;;;;5054433;28;20291;-69
2021/05/19 02:10:14;;;;;;;;;;;8.20;99.90;;;;;;5054007;28;19925;-70
2021/05/19 02:12:43;;;;;;;;;;;8.10;99.90;;;;;;5054060;28;19925;-72
2021/05/19 02:15:16;;;;;;;;;;;8.10;99.90;;;;;;5051561;28;19924;-69
2021/05/19 02:17:46;;;;;;;;;;;8.10;99.90;;;;;;5053417;28;19924;-69
2021/05/19 02:20:17;;;;;;;;;;;8.10;99.90;;;;;;5053709;28;20277;-69
2021/05/19 02:22:47;;;;;;;;;;;8.00;99.90;;;;;;5054729;28;20299;-72
2021/05/19 02:25:16;;;;;;;;;;;8.00;99.90;;;;;;5053768;28;19931;-70
2021/05/19 02:27:44;;;;;;;;;;;7.90;99.90;;;;;;5057188;28;19925;-69
2021/05/19 02:30:19;;;;;;;;;;;7.90;99.90;;;;;;5053371;28;20304;-71
2021/05/19 02:32:47;;;;;;;;;;;7.90;99.90;;;;;;5054867;28;19971;-69
2021/05/19 02:35:17;;;;;;;;;;;7.90;99.90;;;;;;5054746;28;20019;-70
2021/05/19 02:37:52;;;;;;;;;;;7.90;99.90;;;;;;5053737;28;20400;-69
2021/05/19 02:40:20;;;;;;;;;;;7.90;99.90;;;;;;5054835;28;19928;-69
2021/05/19 02:42:48;;;;;;;;;;;7.90;99.90;;;;;;5054964;28;19932;-69
2021/05/19 02:45:24;;;;;;;;;;;7.90;99.90;;;;;;5051787;28;20019;-71
2021/05/19 02:47:51;;;;;;;;;;;7.90;99.90;;;;;;5036432;28;20028;-68
2021/05/19 02:50:19;;;;;;;;;;;7.90;99.90;;;;;;5054560;28;20474;-69
2021/05/19 02:52:47;;;;;;;;;;;7.80;99.90;;;;;;5052930;28;20273;-70
2021/05/19 02:55:15;;;;;;;;;;;7.70;99.90;;;;;;5054176;28;19925;-72
2021/05/19 02:57:43;;;;;;;;;;;7.70;99.90;;;;;;5054216;28;19925;-70
2021/05/19 03:00:11;;;;;;;;;;;7.70;99.90;;;;;;5053864;28;19925;-69
2021/05/19 03:02:39;;;;;;;;;;;7.70;99.90;;;;;;5053592;28;19998;-71
2021/05/19 03:05:09;;;;;;;;;;;7.60;99.90;;;;;;5054091;28;19947;-71
2021/05/19 03:07:37;;;;;;;;;;;7.60;99.90;;;;;;5054388;28;19925;-70
2021/05/19 03:10:05;;;;;;;;;;;7.60;99.90;;;;;;5069630;28;19956;-70
2021/05/19 03:12:34;;;;;;;;;;;7.50;99.90;;;;;;5054148;28;20024;-70
2021/05/19 03:15:02;;;;;;;;;;;7.50;99.90;;;;;;5051956;28;19925;-70
2021/05/19 03:17:30;;;;;;;;;;;7.50;99.90;;;;;;5053510;28;20408;-72
2021/05/19 03:19:57;;;;;;;;;;;7.50;99.90;;;;;;5053797;28;19925;-71
2021/05/19 03:22:25;;;;;;;;;;;7.40;99.90;;;;;;5053945;28;20295;-72
2021/05/19 03:24:53;;;;;;;;;;;7.40;99.90;;;;;;5069488;28;20038;-70
2021/05/19 03:27:20;;;;;;;;;;;7.20;99.90;;;;;;5054087;28;20497;-70
2021/05/19 03:29:49;;;;;;;;;;;7.00;99.90;;;;;;5053968;28;19947;-72
2021/05/19 03:32:17;;;;;;;;;;;7.00;99.90;;;;;;5052133;28;20372;-70
2021/05/19 03:34:45;;;;;;;;;;;6.90;99.90;;;;;;5054793;28;19925;-69
2021/05/19 03:37:13;;;;;;;;;;;6.80;99.90;;;;;;5055372;28;19931;-70
2021/05/19 03:39:40;;;;;;;;;;;6.90;99.90;;;;;;5054666;28;20027;-70
2021/05/19 03:42:09;;;;;;;;;;;6.90;99.90;;;;;;5055090;28;19924;-69
2021/05/19 03:44:37;;;;;;;;;;;6.90;99.90;;;;;;5055637;28;20352;-70
2021/05/19 03:47:08;;;;;;;;;;;6.80;99.90;;;;;;5054543;28;20398;-70
2021/05/19 03:49:38;;;;;;;;;;;6.90;99.90;;;;;;5071681;28;19931;-69
2021/05/19 03:52:06;;;;;;;;;;;6.90;99.90;;;;;;5056868;28;20015;-71
2021/05/19 03:54:35;;;;;;;;;;;6.80;99.90;;;;;;5037981;28;19925;-72
2021/05/19 03:57:02;;;;;;;;;;;6.80;99.90;;;;;;5056270;28;20380;-70
2021/05/19 03:59:31;;;;;;;;;;;6.80;99.90;;;;;;5058690;28;19960;-70
2021/05/19 04:01:59;;;;;;;;;;;6.80;99.90;;;;;;5057003;28;19924;-72
2021/05/19 04:04:28;;;;;;;;;;;6.80;99.90;;;;;;5058262;28;19959;-70
2021/05/19 04:07:01;;;;;;;;;;;6.80;99.90;;;;;;5058535;28;19935;-69
2021/05/19 04:09:30;;;;;;;;;;;6.80;99.90;;;;;;5057795;28;19932;-69
2021/05/19 04:11:57;;;;;;;;;;;6.80;99.90;;;;;;5058140;28;19924;-72
2021/05/19 04:14:25;;;;;;;;;;;6.80;99.90;;;;;;5073178;28;20019;-70
2021/05/19 04:16:53;;;;;;;;;;;6.90;99.90;;;;;;5053761;28;19925;-70
2021/05/19 04:19:21;;;;;;;;;;;7.00;99.90;;;;;;5056518;28;19936;-69
2021/05/19 04:21:50;;;;;;;;;;;7.10;99.90;;;;;;5058251;28;19951;-70
2021/05/19 04:24:17;;;;;;;;;;;7.20;99.90;;;;;;5058014;28;19932;-72
2021/05/19 04:26:45;;;;;;;;;;;7.20;99.90;;;;;;5057599;28;19925;-70
2021/05/19 04:29:14;;;;;;;;;;;7.30;99.90;;;;;;5056782;28;19959;-72
2021/05/19 04:31:42;;;;;;;;;;;7.30;99.90;;;;;;5056614;28;20391;-71
2021/05/19 04:34:09;;;;;;;;;;;7.30;99.90;;;;;;5057527;28;19939;-70
2021/05/19 04:36:37;;;;;;;;;;;7.40;99.90;;;;;;5057235;28;19924;-70
2021/05/19 04:39:06;;;;;;;;;;;7.50;99.90;;;;;;5072718;28;20410;-71
2021/05/19 04:41:34;;;;;;;;;;;7.50;99.90;;;;;;5057971;28;20043;-71
2021/05/19 04:44:02;;;;;;;;;;;7.50;99.90;;;;;;5074749;28;19925;-72
2021/05/19 04:46:30;;;;;;;;;;;7.60;99.90;;;;;;5055342;28;20431;-70
2021/05/19 04:48:59;;;;;;;;;;;7.70;99.90;;;;;;5056942;28;20242;-70
2021/05/19 04:51:27;;;;;;;;;;;7.70;99.90;;;;;;5056673;28;19925;-70
2021/05/19 04:53:55;;;;;;;;;;;7.90;99.90;;;;;;5055532;28;19929;-70
2021/05/19 04:56:24;;;;;;;;;;;7.90;99.90;;;;;;5056688;28;19967;-70
2021/05/19 04:58:52;;;;;;;;;;;8.30;99.90;;;;;;5056640;28;19925;-70
2021/05/19 05:01:20;;;;;;;;;;;8.40;99.90;;;;;;5054090;28;19924;-70
2021/05/19 05:03:48;;;;;;;;;;;8.60;99.90;;;;;;5056463;28;19932;-70
2021/05/19 05:06:15;;;;;;;;;;;8.90;99.90;;;;;;5056026;28;19939;-70
2021/05/19 05:08:43;;;;;;;;;;;9.00;99.90;;;;;;5054180;28;19924;-70
2021/05/19 05:11:11;;;;;;;;;;;8.90;99.90;;;;;;5056285;28;19978;-73
2021/05/19 05:13:41;;;;;;;;;;;9.10;99.90;;;;;;5056322;28;19924;-70
2021/05/19 05:16:09;;;;;;;;;;;9.30;99.90;;;;;;5052435;28;19948;-72
2021/05/19 05:18:37;;;;;;;;;;;9.60;99.90;;;;;;5056082;28;20437;-70
2021/05/19 05:21:05;;;;;;;;;;;9.90;99.90;;;;;;5055111;28;20250;-71
2021/05/19 05:23:34;;;;;;;;;;;10.10;99.90;;;;;;5037968;28;19925;-71
2021/05/19 05:26:03;;;;;;;;;;;10.30;99.90;;;;;;5054734;28;19983;-69
2021/05/19 05:28:31;;;;;;;;;;;10.40;99.90;;;;;;5055963;28;20292;-71
2021/05/19 05:31:00;;;;;;;;;;;10.70;99.90;;;;;;5055272;28;19920;-70
2021/05/19 05:33:28;;;;;;;;;;;11.00;99.90;;;;;;5056692;28;19921;-70
2021/05/19 05:35:55;;;;;;;;;;;10.90;99.90;;;;;;5054931;28;19927;-71
2021/05/19 05:38:23;;;;;;;;;;;11.00;99.90;;;;;;5056125;28;19921;-74
2021/05/19 05:40:59;;;;;;;;;;;10.90;99.90;;;;;;5055660;28;20305;-73
2021/05/19 05:43:27;;;;;;;;;;;10.90;99.90;;;;;;5054976;28;20386;-73
2021/05/19 05:45:54;;;;;;;;;;;10.80;99.90;;;;;;5054436;28;19962;-74
2021/05/19 05:48:23;;;;;;;;;;;10.70;99.90;;;;;;5054793;28;19944;-73
2021/05/19 05:50:51;;;;;;;;;;;10.50;99.90;;;;;;5056433;28;19920;-78
2021/05/19 05:53:20;;;;;;;;;;;10.60;99.90;;;;;;5071188;28;19998;-78
2021/05/19 05:55:48;;;;;;;;;;;10.80;99.90;;;;;;5055428;28;19924;-75
2021/05/19 05:58:17;;;;;;;;;;;11.00;99.90;;;;;;5057069;28;20319;-74
2021/05/19 06:00:45;;;;;;;;;;;10.90;99.90;;;;;;5054916;28;19986;-74
2021/05/19 06:03:14;;;;;;;;;;;10.80;99.90;;;;;;5072070;28;19927;-74
2021/05/19 06:05:46;;;;;;;;;;;11.00;99.90;;;;;;5056568;28;19924;-74
2021/05/19 06:08:14;;;;;;;;;;;11.50;99.90;;;;;;5039176;28;19974;-74
2021/05/19 06:10:42;;;;;;;;;;;12.10;99.90;;;;;;5039968;28;19924;-73
2021/05/19 06:13:10;;;;;;;;;;;12.30;99.90;;;;;;5057099;28;19921;-76
2021/05/19 06:15:37;;;;;;;;;;;12.30;99.90;;;;;;5054781;28;19929;-74
2021/05/19 06:18:05;;;;;;;;;;;12.20;99.90;;;;;;5073047;28;19921;-74
2021/05/19 06:20:33;;;;;;;;;;;12.10;99.90;;;;;;5055433;28;19921;-73
2021/05/19 06:23:02;;;;;;;;;;;12.30;99.90;;;;;;5057133;28;19920;-73
2021/05/19 06:25:30;;;;;;;;;;;12.70;99.90;;;;;;5057332;28;19921;-73
2021/05/19 06:27:58;;;;;;;;;;;13.00;99.90;;;;;;5056675;28;20350;-74
2021/05/19 06:30:29;;;;;;;;;;;13.00;99.90;;;;;;5057528;28;20369;-74
2021/05/19 06:32:56;;;;;;;;;;;13.30;99.90;;;;;;5058851;28;20011;-74
2021/05/19 06:35:24;;;;;;;;;;;13.30;99.90;;;;;;5058687;28;19990;-74
2021/05/19 06:37:52;;;;;;;;;;;13.30;99.90;;;;;;5039789;28;20304;-74
2021/05/19 06:40:21;;;;;;;;;;;14.00;99.90;;;;;;5056706;28;20312;-74
2021/05/19 06:42:49;;;;;;;;;;;14.50;99.90;;;;;;5056592;28;19920;-74
2021/05/19 06:45:17;;;;;;;;;;;15.50;99.90;;;;;;5037340;28;20011;-74
2021/05/19 06:47:45;;;;;;;;;;;15.30;99.30;;;;;;5056223;28;20364;-73
2021/05/19 06:50:14;;;;;;;;;;;15.60;99.90;;;;;;5056632;28;19920;-73
2021/05/19 06:52:42;;;;;;;;;;;15.70;97.70;;;;;;5073501;28;19960;-73
2021/05/19 06:55:12;;;;;;;;;;;15.80;97.80;;;;;;5057697;28;20325;-73
2021/05/19 06:57:40;;;;;;;;;;;17.10;96.50;;;;;;5058535;28;20316;-73
2021/05/19 07:00:09;;;;;;;;;;;18.90;92.50;;;;;;5057820;28;19921;-73
2021/05/19 07:03:02;;;;;;;;;;;17.80;92.90;;;;;;5057623;28;19927;-75
2021/05/19 07:05:33;;;;;;;;;;;16.30;94.90;;;;;;5058157;28;19929;-73
2021/05/19 07:08:27;;;;;;;;;;;15.60;96.30;;;;;;5072686;28;19979;-74
2021/05/19 07:10:55;;;;;;;;;;;14.60;98.10;;;;;;5056151;28;19924;-74
2021/05/19 07:13:27;;;;;;;;;;;13.90;99.90;;;;;;5055404;28;19927;-75
2021/05/19 07:15:56;;;;;;;;;;;13.60;99.90;;;;;;5054051;28;19982;-78
2021/05/19 07:18:24;;;;;;;;;;;13.40;99.90;;;;;;5056233;28;19921;-78
2021/05/19 07:20:52;;;;;;;;;;;13.70;99.90;;;;;;5054748;28;20015;-73
2021/05/19 07:23:21;;;;;;;;;;;14.80;99.90;;;;;;5056295;28;19921;-76
2021/05/19 07:25:49;;;;;;;;;;;15.80;98.20;;;;;;5056691;28;19921;-73
2021/05/19 07:28:17;;;;;;;;;;;17.30;96.10;;;;;;5057053;28;20364;-74
2021/05/19 07:30:48;;;;;;;;;;;18.80;93.50;;;;;;5055307;28;19921;-73
2021/05/19 07:33:20;;;;;;;;;;;21.80;83.00;;;;;;5057749;28;19920;-72
2021/05/19 07:35:48;;;;;;;;;;;22.00;77.20;;;;;;5057522;28;19927;-72
2021/05/19 07:38:16;;;;;;;;;;;23.10;71.40;;;;;;5074640;28;19927;-72
2021/05/19 07:40:44;;;;;;;;;;;22.90;68.60;;;;;;5058855;28;19947;-71
2021/05/19 07:43:13;;;;;;;;;;;24.10;67.20;;;;;;5058122;28;19982;-73
2021/05/19 07:45:41;;;;;;;;;;;25.60;59.80;;;;;;5058473;28;19921;-75
2021/05/19 07:48:10;;;;;;;;;;;23.70;60.80;;;;;;5058521;28;19956;-74
2021/05/19 07:50:37;;;;;;;;;;;26.50;57.90;;;;;;5057784;28;19921;-73
2021/05/19 07:53:04;;;;;;;;;;;27.50;53.40;;;;;;5056295;28;19928;-73
2021/05/19 07:55:41;;;;;;;;;;;26.30;53.80;;;;;;5072222;28;19924;-73
2021/05/19 07:58:12;;;;;;;;;;;27.00;52.10;;;;;;5071119;28;19925;-73
2021/05/19 08:00:49;;;;;;;;;;;25.90;50.60;;;;;;5055067;28;19967;-72
2021/05/19 08:03:17;;;;;;;;;;;26.50;51.60;;;;;;5056817;28;20295;-73
2021/05/19 08:05:46;;;;;;;;;;;27.00;49.90;;;;;;5037271;28;20234;-72
2021/05/19 08:08:13;;;;;;;;;;;27.50;48.40;;;;;;5054808;28;19928;-74
2021/05/19 08:10:41;;;;;;;;;;;26.40;48.80;;;;;;5036988;28;19925;-77
2021/05/19 08:13:09;;;;;;;;;;;26.80;49.30;;;;;;5070607;28;19942;-73
2021/05/19 08:15:42;;;;;;;;;;;26.50;48.70;;;;;;5054747;28;20295;-72
2021/05/19 08:18:09;;;;;;;;;;;25.30;51.40;;;;;;5056883;28;19920;-72
2021/05/19 08:20:38;;;;;;;;;;;23.60;52.20;;;;;;5039630;28;19947;-73
2021/05/19 08:23:07;;;;;;;;;;;21.10;58.90;;;;;;5040178;28;19921;-73
2021/05/19 08:25:35;;;;;;;;;;;19.30;64.30;;;;;;5057274;28;19943;-72
2021/05/19 08:28:04;;;;;;;;;;;18.70;68.60;;;;;;5057655;28;19924;-75
2021/05/19 08:30:33;;;;;;;;;;;17.80;72.50;;;;;;5056386;28;19986;-74
2021/05/19 08:33:00;;;;;;;;;;;16.90;76.20;;;;;;5074164;28;19921;-73
2021/05/19 08:35:28;;;;;;;;;;;17.70;79.50;;;;;;5057898;28;19943;-73
2021/05/19 08:37:57;;;;;;;;;;;20.00;71.90;;;;;;5074726;28;19921;-76
2021/05/19 08:40:25;;;;;;;;;;;19.60;70.60;;;;;;5059128;28;19920;-73
2021/05/19 08:42:53;;;;;;;;;;;22.30;66.30;;;;;;5074223;28;19954;-74
2021/05/19 08:45:22;;;;;;;;;;;22.40;61.90;;;;;;5041812;28;19980;-72
2021/05/19 08:47:58;;;;;;;;;;;22.00;62.50;;;;;;5077122;28;19943;-73
2021/05/19 08:50:26;;;;;;;;;;;24.50;57.40;;;;;;5061369;28;19927;-73
2021/05/19 08:52:56;;;;;;;;;;;25.20;51.70;;;;;;5061106;28;19920;-74
2021/05/19 08:55:25;;;;;;;;;;;21.90;54.90;;;;;;5078109;28;19935;-73
2021/05/19 08:57:53;;;;;;;;;;;20.80;60.60;;;;;;5061960;28;19924;-73
2021/05/19 09:00:21;;;;;;;;;;;20.30;64.00;;;;;;5062467;28;19920;-73
2021/05/19 09:03:09;;;;;;;;;;;21.90;62.70;;;;;;5062488;28;19925;-73
2021/05/19 09:08:35;;;;;;;;;;;27.20;46.10;;;;;;5043084;28;19921;-72
2021/05/19 09:11:05;;;;;;;;;;;26.60;48.00;;;;;;5058430;28;19931;-72
2021/05/19 09:16:54;;;;;;;;;;;25.70;48.70;;;;;;5055426;28;19921;-73
2021/05/19 09:19:32;;;;;;;;;;;26.00;45.90;;;;;;5059377;28;20147;-77
2021/05/19 09:22:00;;;;;;;;;;;25.90;48.40;;;;;;5073734;28;20050;-71
2021/05/19 09:24:31;;;;;;;;;;;26.80;46.40;;;;;;5039917;28;19967;-75
2021/05/19 09:27:00;;;;;;;;;;;24.10;48.20;;;;;;5076866;28;20360;-73
2021/05/19 09:29:29;;;;;;;;;;;25.40;49.70;;;;;;5059012;28;19980;-72
2021/05/19 09:31:58;;;;;;;;;;;27.60;44.70;;;;;;5041272;28;19951;-72
2021/05/19 09:34:28;;;;;;;;;;;24.50;45.40;;;;;;5059253;28;20275;-77
2021/05/19 09:37:13;;;;;;;;;;;24.40;48.00;;;;;;5060675;28;19932;-74
2021/05/19 09:39:45;;;;;;;;;;;22.10;50.70;;;;;;5061977;28;19924;-75
2021/05/19 09:42:15;;;;;;;;;;;22.50;53.20;;;;;;5060634;28;19921;-74
2021/05/19 09:44:45;;;;;;;;;;;21.30;53.60;;;;;;5077279;28;19920;-72
2021/05/19 09:47:14;;;;;;;;;;;20.20;56.00;;;;;;5061367;28;20492;-72
2021/05/19 09:49:42;;;;;;;;;;;18.90;59.70;;;;;;5077380;28;19924;-72
2021/05/19 09:52:18;;;;;;;;;;;18.30;61.30;;;;;;5060386;28;19968;-74
2021/05/19 09:54:46;;;;;;;;;;;18.40;61.60;;;;;;5043277;28;20376;-73
2021/05/19 09:57:19;;;;;;;;;;;18.90;62.10;;;;;;5058959;28;19928;-73
2021/05/19 09:59:49;;;;;;;;;;;18.70;61.50;;;;;;5060510;28;20348;-73
2021/05/19 10:02:20;;;;;;;;;;;18.90;62.30;;;;;;5058879;28;19932;-73
2021/05/19 10:04:50;;;;;;;;;;;18.60;62.50;;;;;;5059670;28;19932;-72
2021/05/19 10:07:19;;;;;;;;;;;19.00;60.80;;;;;;5060177;28;19920;-74
2021/05/19 10:09:48;;;;;;;;;;;18.10;62.80;;;;;;5075358;28;19928;-73
2021/05/19 10:12:18;;;;;;;;;;;17.50;64.10;;;;;;5043057;28;19920;-73
2021/05/19 10:14:46;;;;;;;;;;;17.50;65.00;;;;;;5060137;28;19951;-74
2021/05/19 10:17:15;;;;;;;;;;;17.70;64.50;;;;;;5058169;28;20352;-73
2021/05/19 10:19:45;;;;;;;;;;;17.90;64.60;;;;;;5059553;28;19921;-73
2021/05/19 10:22:13;;;;;;;;;;;18.40;62.70;;;;;;5059739;28;19952;-77
2021/05/19 10:24:45;;;;;;;;;;;18.60;64.10;;;;;;5061450;28;19966;-76
2021/05/19 10:27:15;;;;;;;;;;;22.50;55.60;;;;;;5061950;28;19932;-74
2021/05/19 10:29:51;;;;;;;;;;;24.80;46.90;;;;;;5058139;28;19920;-73
2021/05/19 10:32:31;;;;;;;;;;;24.70;46.10;;;;;;5060864;28;19921;-73
2021/05/19 10:35:00;;;;;;;;;;;22.80;47.90;;;;;;5070997;28;19974;-72
2021/05/19 10:37:34;;;;;;;;;;;20.90;52.20;;;;;;5068896;28;19991;-73
2021/05/19 10:40:27;;;;;;;;;;;20.20;54.60;;;;;;5085852;28;19927;-73
2021/05/19 10:42:56;;;;;;;;;;;19.50;58.60;;;;;;5065650;28;19951;-73
2021/05/19 10:45:26;;;;;;;;;;;19.90;58.40;;;;;;5063421;28;19988;-75
2021/05/19 10:47:56;;;;;;;;;;;19.40;58.00;;;;;;5063173;28;19969;-73
2021/05/19 10:50:31;;;;;;;;;;;19.30;58.40;;;;;;5063225;28;20019;-73
2021/05/19 10:58:39;;;;;;;;;;;19.00;59.40;;;;;;5060659;28;20019;-73
2021/05/19 11:01:10;;;;;;;;;;;18.20;59.30;;;;;;5074733;28;19928;-73
2021/05/19 11:03:38;;;;;;;;;;;17.80;61.50;;;;;;5060420;28;20027;-74
2021/05/19 11:06:08;;;;;;;;;;;17.40;62.80;;;;;;5059176;28;19974;-73
2021/05/19 11:08:38;;;;;;;;;;;16.80;65.50;;;;;;5059717;28;19924;-74
2021/05/19 11:11:21;;;;;;;;;;;15.70;71.30;;;;;;5075031;28;19932;-76
2021/05/19 11:14:21;;;;;;;;;;;15.10;76.60;;;;;;5057460;28;20372;-74
2021/05/19 11:16:58;;;;;;;;;;;14.60;76.50;;;;;;5055711;28;19921;-76
2021/05/19 11:19:30;;;;;;;;;;;14.30;78.70;;;;;;5074758;28;19921;-76
2021/05/19 11:21:59;;;;;;;;;;;14.50;79.80;;;;;;5059284;28;19959;-75
2021/05/19 11:24:27;;;;;;;;;;;15.20;78.80;;;;;;5058675;28;20011;-75
2021/05/19 11:26:55;;;;;;;;;;;15.70;77.80;;;;;;5059039;28;19955;-76
2021/05/19 11:29:23;;;;;;;;;;;15.70;77.60;;;;;;5058265;28;19921;-76
2021/05/19 11:31:57;;;;;;;;;;;15.30;82.00;;;;;;5057257;28;19928;-75
2021/05/19 11:34:28;;;;;;;;;;;15.30;82.30;;;;;;5057354;28;19920;-76
2021/05/19 11:36:58;;;;;;;;;;;15.00;82.10;;;;;;5056986;28;20010;-76
2021/05/19 11:39:27;;;;;;;;;;;14.60;82.70;;;;;;5056395;28;19927;-77
2021/05/19 11:42:10;;;;;;;;;;;14.40;85.30;;;;;;5039425;28;20323;-76
2021/05/19 11:44:49;;;;;;;;;;;14.50;86.80;;;;;;5057877;28;20374;-75
2021/05/19 11:47:22;;;;;;;;;;;14.60;86.20;;;;;;5056539;28;19921;-75
2021/05/19 11:50:08;;;;;;;;;;;14.80;86.10;;;;;;5057606;28;19959;-74
2021/05/19 11:52:38;;;;;;;;;;;15.00;86.10;;;;;;5055543;28;19925;-74
2021/05/19 11:55:07;;;;;;;;;;;15.00;85.90;;;;;;5039575;28;19928;-76
2021/05/19 11:57:35;;;;;;;;;;;14.80;86.70;;;;;;5039923;28;19924;-76
2021/05/19 12:00:03;;;;;;;;;;;14.60;88.00;;;;;;5039645;28;20368;-75
2021/05/19 12:02:53;;;;;;;;;;;14.60;89.50;;;;;;5057628;28;19932;-75
2021/05/19 12:05:21;;;;;;;;;;;14.60;88.80;;;;;;5056774;28;20012;-74
2021/05/19 12:07:52;;;;;;;;;;;15.00;88.50;;;;;;5059494;28;19936;-75
2021/05/19 12:10:21;;;;;;;;;;;15.10;86.70;;;;;;5058959;28;19996;-73
2021/05/19 12:12:53;;;;;;;;;;;15.40;86.10;;;;;;5058512;28;19921;-74
2021/05/19 12:15:22;;;;;;;;;;;15.20;84.70;;;;;;5073157;28;19921;-75
2021/05/19 12:17:58;;;;;;;;;;;15.00;85.00;;;;;;5056677;28;19964;-78
2021/05/19 12:20:27;;;;;;;;;;;15.00;83.90;;;;;;5076424;28;19952;-75
2021/05/19 12:22:55;;;;;;;;;;;15.00;83.60;;;;;;5076567;28;20403;-74
2021/05/19 12:25:24;;;;;;;;;;;15.00;83.50;;;;;;5060562;28;19921;-74
2021/05/19 12:27:55;;;;;;;;;;;15.00;81.40;;;;;;5076853;28;19921;-74
2021/05/19 12:30:24;;;;;;;;;;;15.10;81.70;;;;;;5060603;28;20442;-75
2021/05/19 12:33:05;;;;;;;;;;;15.20;82.10;;;;;;5061582;28;19920;-75
2021/05/19 12:35:33;;;;;;;;;;;15.00;82.40;;;;;;5059190;28;19928;-75
2021/05/19 12:38:02;;;;;;;;;;;15.20;83.00;;;;;;5044650;28;19920;-77
2021/05/19 12:40:32;;;;;;;;;;;15.40;82.10;;;;;;5044275;28;19964;-75
2021/05/19 12:43:01;;;;;;;;;;;15.70;80.70;;;;;;5063960;28;19921;-79
2021/05/19 12:45:31;;;;;;;;;;;16.00;81.30;;;;;;5077050;28;19925;-75
2021/05/19 12:48:06;;;;;;;;;;;16.20;81.80;;;;;;5045380;28;19975;-76
2021/05/19 12:50:40;;;;;;;;;;;16.60;78.70;;;;;;5045134;28;19925;-74
2021/05/19 12:53:09;;;;;;;;;;;16.70;78.90;;;;;;5044101;28;19921;-74
2021/05/19 12:55:37;;;;;;;;;;;16.50;77.60;;;;;;5061983;28;19921;-74
2021/05/19 12:58:05;;;;;;;;;;;16.60;78.30;;;;;;5044064;28;19920;-77
2021/05/19 13:00:34;;;;;;;;;;;16.70;78.80;;;;;;5059113;28;19980;-73
2021/05/19 13:03:02;;;;;;;;;;;17.00;77.70;;;;;;5062340;28;19921;-73
2021/05/19 13:05:34;;;;;;;;;;;17.20;78.30;;;;;;5061310;28;19993;-73
2021/05/19 13:08:02;;;;;;;;;;;17.10;77.50;;;;;;5076425;28;19920;-73
2021/05/19 13:10:33;;;;;;;;;;;17.50;78.10;;;;;;5060579;28;19971;-73
2021/05/19 13:13:24;;;;;;;;;;;17.70;77.90;;;;;;5061628;28;19921;-73
2021/05/19 13:15:54;;;;;;;;;;;18.40;75.90;;;;;;5061154;28;19920;-73
2021/05/19 13:18:27;;;;;;;;;;;18.50;75.10;;;;;;5057570;28;19921;-73
2021/05/19 13:21:01;;;;;;;;;;;18.40;75.70;;;;;;5062144;28;19967;-73
2021/05/19 13:23:39;;;;;;;;;;;18.20;74.10;;;;;;5062371;28;19928;-72
2021/05/19 13:26:07;;;;;;;;;;;18.50;75.50;;;;;;5077070;28;19970;-72
2021/05/19 13:28:37;;;;;;;;;;;18.40;75.10;;;;;;5077438;28;19989;-73
2021/05/19 13:31:05;;;;;;;;;;;17.50;76.60;;;;;;5057800;28;19993;-73
2021/05/19 13:33:51;;;;;;;;;;;17.20;75.60;;;;;;5060167;28;19928;-74
2021/05/19 13:36:33;;;;;;;;;;;17.10;75.70;;;;;;5041851;28;20007;-73
2021/05/19 13:39:01;;;;;;;;;;;17.20;74.00;;;;;;5042216;28;19928;-73
2021/05/19 13:41:29;;;;;;;;;;;16.70;75.20;;;;;;5060857;28;20440;-73
2021/05/19 13:43:57;;;;;;;;;;;17.00;73.60;;;;;;5075662;28;19975;-73
2021/05/19 13:46:28;;;;;;;;;;;16.80;74.40;;;;;;5058829;28;19925;-72
2021/05/19 13:49:15;;;;;;;;;;;16.70;75.30;;;;;;5061069;28;20438;-72
2021/05/19 13:51:44;;;;;;;;;;;16.70;77.00;;;;;;5060954;28;19967;-73
2021/05/19 13:54:13;;;;;;;;;;;16.80;78.40;;;;;;5075949;28;19928;-72
2021/05/19 13:56:41;;;;;;;;;;;16.10;79.70;;;;;;5059131;28;19920;-72
2021/05/19 13:59:09;;;;;;;;;;;16.20;81.70;;;;;;5058186;28;19920;-72
2021/05/19 14:01:37;;;;;;;;;;;16.30;82.60;;;;;;5058796;28;19943;-71
2021/05/19 14:04:06;;;;;;;;;;;16.00;84.10;;;;;;5060353;28;19924;-71
2021/05/19 14:06:36;;;;;;;;;;;15.80;87.40;;;;;;5060712;28;19956;-73
2021/05/19 14:09:06;;;;;;;;;;;15.60;88.80;;;;;;5059917;28;19921;-71
2021/05/19 14:11:37;;;;;;;;;;;15.40;87.50;;;;;;5060496;28;19920;-71
2021/05/19 14:14:16;;;;;;;;;;;15.20;87.90;;;;;;5058880;28;19932;-76
2021/05/19 14:16:58;;;;;;;;;;;14.80;86.50;;;;;;5055529;28;20113;-73
2021/05/19 14:19:54;;;;;;;;;;;14.70;86.00;;;;;;5057675;28;20436;-74
2021/05/19 14:27:54;;;;;;;;;;;14.60;88.50;;;;;;5056436;28;19921;-72
2021/05/19 14:30:22;;;;;;;;;;;14.80;88.80;;;;;;5073343;28;19944;-72
2021/05/19 14:32:51;;;;;;;;;;;15.10;88.00;;;;;;5057301;28;19928;-73
2021/05/19 14:35:37;;;;;;;;;;;15.20;88.20;;;;;;5059278;28;19921;-73
2021/05/19 14:46:58;;;;;;;;;;;16.40;86.00;;;;;;5058020;28;19920;-74
2021/05/19 15:00:30;;;;;;;;;;;17.30;80.70;;;;;;5057124;28;19928;-73
2021/05/19 15:02:58;;;;;;;;;;;16.50;81.70;;;;;;5058116;28;20245;-72
2021/05/19 15:05:26;;;;;;;;;;;16.40;82.90;;;;;;5056997;28;19920;-73
2021/05/19 15:07:55;;;;;;;;;;;16.40;82.60;;;;;;5057993;28;19974;-72
2021/05/19 15:10:25;;;;;;;;;;;16.60;84.60;;;;;;5058031;28;19920;-72
2021/05/19 15:12:54;;;;;;;;;;;16.90;82.20;;;;;;5073464;28;22494;-72
2021/05/19 15:15:22;;;;;;;;;;;17.30;79.80;;;;;;5055870;28;19933;-72
2021/05/19 15:17:50;;;;;;;;;;;16.00;75.60;;;;;;5056001;28;19925;-72